Terminal Aerodrome Forecast
Issued by NWS Bismarck, ND

Home | Current Version | Previous Version | Text Only | Print | Product List | Glossary On
Versions: 1 2 3 4 5 6 7 8 9 10 11 12 13 14
798
FTUS43 KBIS 251341 AAA
TAFBIS
TAF AMD
KBIS 251341Z 2514/2612 15007KT P6SM SCT025 BKN110
     FM251500 03007KT P6SM VCSH FEW080 SCT150
     FM252100 34007KT P6SM SCT130 BKN200
     FM260600 04004KT P6SM FEW130 SCT250=

USA.gov is the U.S. government's official web portal to all federal, state and local government web resources and services.